createdAt,value
2018-10-03T00:02:12.201Z,1009.92
2018-10-03T00:03:38.825Z,1009.88
2018-10-03T00:05:05.732Z,1009.91
2018-10-03T00:06:33.051Z,1009.95
2018-10-03T00:08:00.392Z,1009.93
2018-10-03T00:09:27.698Z,1009.96
2018-10-03T00:10:55.069Z,1009.92
2018-10-03T00:12:21.945Z,1009.91
2018-10-03T00:13:49.379Z,1009.93
2018-10-03T00:15:16.336Z,1009.94
2018-10-03T00:16:43.518Z,1009.91
2018-10-03T00:18:10.564Z,1009.99
2018-10-03T00:19:37.389Z,1009.96
2018-10-03T00:21:04.577Z,1010.01
2018-10-03T00:22:31.783Z,1010.01
2018-10-03T00:23:59.162Z,1010.01
2018-10-03T00:25:26.467Z,1010.00
2018-10-03T00:26:53.651Z,1010.03
2018-10-03T00:39:58.875Z,1009.96
2018-10-03T00:41:25.514Z,1009.94
2018-10-03T00:42:52.784Z,1009.90
2018-10-03T00:44:20.041Z,1009.87
2018-10-03T00:45:47.377Z,1009.87
2018-10-03T00:47:14.597Z,1009.87
2018-10-03T00:48:41.799Z,1009.87
2018-10-03T00:50:09.133Z,1009.90
2018-10-03T00:51:36.414Z,1009.90
2018-10-03T00:53:03.767Z,1009.90
2018-10-03T00:54:30.998Z,1009.90
2018-10-03T00:55:57.913Z,1009.94
2018-10-03T00:57:25.264Z,1009.94
2018-10-03T00:58:52.603Z,1009.97
2018-10-03T01:06:18.232Z,1009.99
2018-10-03T01:07:44.468Z,1009.99
2018-10-03T01:09:11.479Z,1009.99
2018-10-03T01:10:38.745Z,1010.02
2018-10-03T01:12:06.119Z,1009.93
2018-10-03T01:13:33.221Z,1009.95
2018-10-03T01:15:00.369Z,1010.00
2018-10-03T01:16:27.842Z,1009.97
2018-10-03T01:17:54.965Z,1009.91
2018-10-03T01:19:22.163Z,1009.89
2018-10-03T01:20:49.502Z,1009.87
2018-10-03T01:22:16.718Z,1009.82
2018-10-03T01:23:44.066Z,1009.77
2018-10-03T01:25:11.416Z,1009.73
2018-10-03T01:26:38.842Z,1009.72
2018-10-03T01:28:09.085Z,1009.78
2018-10-03T01:29:33.435Z,1009.77
2018-10-03T01:31:00.778Z,1009.80
2018-10-03T01:32:27.797Z,1009.76
2018-10-03T01:33:55.119Z,1009.85
2018-10-03T07:57:11.495Z,1015.30
2018-10-03T07:58:39.369Z,1015.29
2018-10-03T08:00:05.263Z,1015.32
2018-10-03T08:01:32.495Z,1015.33
2018-10-03T08:02:59.772Z,1015.37
2018-10-03T08:04:27.019Z,1015.41
2018-10-03T08:05:54.360Z,1015.44
2018-10-03T08:07:21.871Z,1015.51
2018-10-03T08:08:49.141Z,1015.52
2018-10-03T08:10:16.394Z,1015.62
2018-10-03T08:11:43.778Z,1015.63
2018-10-03T08:13:10.546Z,1015.64
2018-10-03T08:14:37.843Z,1015.65
2018-10-03T08:16:04.635Z,1015.72
2018-10-03T08:17:31.907Z,1015.72
2018-10-03T08:18:59.185Z,1015.76
2018-10-03T08:20:26.428Z,1015.80
2018-10-03T08:21:53.627Z,1015.84
2018-10-03T08:23:21.114Z,1015.81
2018-10-03T08:24:48.253Z,1015.79
2018-10-03T08:26:15.522Z,1015.85
2018-10-03T08:27:42.805Z,1015.89
2018-10-03T08:29:09.782Z,1015.92
2018-10-03T08:30:37.213Z,1015.88
2018-10-03T08:32:04.554Z,1015.99
2018-10-03T08:33:31.919Z,1015.93
2018-10-03T08:34:59.385Z,1016.03
2018-10-03T08:36:26.851Z,1016.00
2018-10-03T08:37:54.400Z,1016.08
2018-10-03T08:39:21.827Z,1016.04
2018-10-03T08:40:49.069Z,1016.11
2018-10-03T08:42:16.206Z,1016.15
2018-10-03T08:43:43.516Z,1016.14
2018-10-03T08:45:10.627Z,1016.24
2018-10-03T08:46:37.974Z,1016.28
2018-10-03T08:48:05.100Z,1016.30
2018-10-03T08:49:32.465Z,1016.31
2018-10-03T08:50:59.949Z,1016.34
2018-10-03T08:52:27.356Z,1016.45
2018-10-03T08:53:54.745Z,1016.46
2018-10-03T08:55:22.209Z,1016.53
2018-10-03T08:56:49.074Z,1016.58
2018-10-03T08:58:16.361Z,1016.60
2018-10-03T08:59:43.601Z,1016.67
2018-10-03T09:01:10.679Z,1016.66
2018-10-03T09:02:37.879Z,1016.68
2018-10-03T09:04:04.938Z,1016.75
2018-10-03T09:05:31.977Z,1016.73
2018-10-03T09:06:59.189Z,1016.74
2018-10-03T09:08:26.372Z,1016.74
2018-10-03T09:09:53.776Z,1016.81
2018-10-03T09:11:21.214Z,1016.88
2018-10-03T09:12:48.490Z,1016.90
2018-10-03T09:14:15.716Z,1016.97
2018-10-03T09:15:43.053Z,1016.99
2018-10-03T09:17:10.287Z,1017.00
2018-10-03T09:18:37.911Z,1017.06
2018-10-03T09:20:04.884Z,1017.05
2018-10-03T09:21:32.352Z,1017.10
2018-10-03T09:22:59.566Z,1017.11
2018-10-03T09:24:27.090Z,1017.16
2018-10-03T09:25:54.156Z,1017.24
2018-10-03T09:27:21.380Z,1017.16
2018-10-03T09:28:48.641Z,1017.22
2018-10-03T09:30:16.104Z,1017.26
2018-10-03T09:31:43.284Z,1017.32
2018-10-03T09:33:10.321Z,1017.37
2018-10-03T09:34:37.807Z,1017.43
2018-10-03T09:36:05.218Z,1017.46
2018-10-03T09:37:32.450Z,1017.53
2018-10-03T09:38:59.908Z,1017.50
2018-10-03T09:40:27.003Z,1017.46
2018-10-03T09:41:54.498Z,1017.49
2018-10-03T09:43:21.851Z,1017.51
2018-10-03T09:44:49.333Z,1017.49
2018-10-03T09:46:16.567Z,1017.57
2018-10-03T09:47:44.084Z,1017.53
2018-10-03T09:49:11.162Z,1017.55
2018-10-03T09:50:38.488Z,1017.64
2018-10-03T09:52:05.982Z,1017.52
2018-10-03T09:53:33.288Z,1017.69
2018-10-03T09:55:00.746Z,1017.72
2018-10-03T09:56:28.113Z,1017.67
2018-10-03T09:57:55.406Z,1017.73
2018-10-03T09:59:22.777Z,1017.75
2018-10-03T10:00:50.186Z,1017.78
2018-10-03T10:02:17.357Z,1017.84
2018-10-03T10:03:44.525Z,1017.83
2018-10-03T10:05:11.759Z,1017.90
2018-10-03T10:06:39.234Z,1017.96
2018-10-03T10:08:06.164Z,1018.04
2018-10-03T10:09:33.571Z,1017.95
2018-10-03T10:11:01.100Z,1018.06
2018-10-03T10:12:28.124Z,1018.06
2018-10-03T10:13:55.501Z,1018.06
2018-10-03T10:15:23.058Z,1018.09
2018-10-03T10:16:50.378Z,1018.12
2018-10-03T10:18:17.700Z,1018.14
2018-10-03T10:19:44.813Z,1018.10
2018-10-03T10:21:12.067Z,1018.18
2018-10-03T10:22:39.476Z,1018.18
2018-10-03T10:24:07.001Z,1018.20
2018-10-03T10:25:34.186Z,1018.27
2018-10-03T10:27:01.658Z,1018.28
2018-10-03T10:28:28.815Z,1018.33
2018-10-03T10:29:56.151Z,1018.31
2018-10-03T10:31:23.517Z,1018.37
2018-10-03T10:32:50.859Z,1018.44
2018-10-03T10:34:18.105Z,1018.42
2018-10-03T10:35:45.086Z,1018.46
2018-10-03T10:37:12.211Z,1018.45
2018-10-03T10:38:39.846Z,1018.43
2018-10-03T10:40:08.376Z,1018.43
2018-10-03T10:41:34.927Z,1018.49
2018-10-03T10:43:02.217Z,1018.53
2018-10-03T10:44:29.733Z,1018.57
2018-10-03T10:45:56.855Z,1018.57
2018-10-03T10:47:24.091Z,1018.61
2018-10-03T10:48:51.167Z,1018.58
2018-10-03T10:50:18.595Z,1018.60
2018-10-03T10:51:45.788Z,1018.66
2018-10-03T10:53:13.139Z,1018.73
2018-10-03T10:54:40.377Z,1018.74
2018-10-03T10:56:07.728Z,1018.74
2018-10-03T10:57:35.121Z,1018.76
2018-10-03T10:59:02.493Z,1018.88
2018-10-03T11:00:30.001Z,1018.89
2018-10-03T11:01:57.314Z,1018.92
2018-10-03T11:03:24.722Z,1018.87
2018-10-03T11:04:52.122Z,1018.90
2018-10-03T11:06:19.751Z,1018.91
2018-10-03T11:07:46.879Z,1018.90
2018-10-03T11:09:14.100Z,1018.87
2018-10-03T11:10:41.477Z,1018.91
2018-10-03T11:12:09.089Z,1018.89
2018-10-03T11:13:36.373Z,1018.98
2018-10-03T11:15:03.991Z,1019.02
2018-10-03T11:16:31.076Z,1019.01
2018-10-03T11:17:58.576Z,1019.01
2018-10-03T11:19:26.126Z,1019.01
2018-10-03T11:20:53.464Z,1019.02
2018-10-03T11:22:20.819Z,1019.04
2018-10-03T11:23:48.570Z,1019.03
2018-10-03T11:25:15.901Z,1019.03
2018-10-03T11:26:42.931Z,1019.06
2018-10-03T11:28:10.191Z,1019.09
2018-10-03T11:29:37.554Z,1019.07
2018-10-03T11:31:05.161Z,1019.06
2018-10-03T11:32:32.558Z,1019.07
2018-10-03T11:33:59.866Z,1019.12
2018-10-03T11:35:27.262Z,1019.13
2018-10-03T11:36:54.536Z,1019.15
2018-10-03T11:38:22.016Z,1019.24
2018-10-03T11:39:49.209Z,1019.30
2018-10-03T11:41:16.699Z,1019.33
2018-10-03T11:42:44.297Z,1019.37
2018-10-03T11:44:11.625Z,1019.36
2018-10-03T11:45:38.959Z,1019.35
2018-10-03T11:47:06.499Z,1019.41
2018-10-03T11:48:33.891Z,1019.36
2018-10-03T11:50:01.525Z,1019.46
2018-10-03T11:51:28.979Z,1019.44
2018-10-03T11:52:56.433Z,1019.45
2018-10-03T11:54:23.796Z,1019.46
2018-10-03T11:55:51.292Z,1019.53
2018-10-03T11:57:18.588Z,1019.49
2018-10-03T11:58:45.859Z,1019.53
2018-10-03T12:00:13.174Z,1019.54
2018-10-03T12:01:40.539Z,1019.60
2018-10-03T12:03:08.098Z,1019.60
2018-10-03T12:04:35.261Z,1019.64
2018-10-03T12:06:02.682Z,1019.64
2018-10-03T12:07:29.868Z,1019.61
2018-10-03T12:08:57.440Z,1019.65
2018-10-03T12:10:24.630Z,1019.68
2018-10-03T12:11:51.965Z,1019.69
2018-10-03T12:13:19.458Z,1019.76
2018-10-03T12:14:46.937Z,1019.73
2018-10-03T12:16:14.518Z,1019.73
2018-10-03T12:17:41.679Z,1019.78
2018-10-03T12:19:09.013Z,1019.77
2018-10-03T12:20:36.521Z,1019.83
2018-10-03T12:22:03.895Z,1019.93
2018-10-03T12:23:31.277Z,1019.97
2018-10-03T12:24:58.719Z,1019.97
2018-10-03T12:26:26.043Z,1019.96
2018-10-03T12:27:53.637Z,1020.05
2018-10-03T12:29:21.143Z,1020.04
2018-10-03T12:30:48.548Z,1020.05
2018-10-03T12:32:15.642Z,1020.07
2018-10-03T12:33:43.061Z,1020.11
2018-10-03T12:35:10.347Z,1020.16
2018-10-03T12:36:37.767Z,1020.26
2018-10-03T12:38:05.134Z,1020.23
2018-10-03T12:39:32.798Z,1020.32
2018-10-03T12:40:59.898Z,1020.39
2018-10-03T12:42:27.239Z,1020.39
2018-10-03T12:43:54.671Z,1020.35
2018-10-03T12:45:22.071Z,1020.36
2018-10-03T12:46:49.485Z,1020.37
2018-10-03T12:48:17.005Z,1020.44
2018-10-03T12:49:44.164Z,1020.48
2018-10-03T12:51:11.498Z,1020.45
2018-10-03T12:52:38.721Z,1020.49
2018-10-03T12:54:05.993Z,1020.48
2018-10-03T12:55:33.365Z,1020.47
2018-10-03T12:57:00.795Z,1020.46
2018-10-03T12:58:28.413Z,1020.47
2018-10-03T12:59:55.703Z,1020.53
2018-10-03T13:01:23.293Z,1020.53
2018-10-03T13:02:50.684Z,1020.55
2018-10-03T13:04:17.932Z,1020.57
2018-10-03T13:05:45.437Z,1020.57
2018-10-03T13:07:12.780Z,1020.58
2018-10-03T13:08:40.060Z,1020.56
2018-10-03T13:10:07.413Z,1020.60
2018-10-03T13:11:34.814Z,1020.63
2018-10-03T13:13:02.019Z,1020.60
2018-10-03T13:14:29.612Z,1020.68
2018-10-03T13:15:56.971Z,1020.69
2018-10-03T13:17:24.154Z,1020.65
2018-10-03T13:18:51.548Z,1020.70
2018-10-03T13:20:19.993Z,1020.69
2018-10-03T13:21:46.423Z,1020.74
2018-10-03T13:23:13.584Z,1020.81
2018-10-03T13:24:40.856Z,1020.76
2018-10-03T13:26:08.274Z,1020.74
2018-10-03T13:27:35.997Z,1020.77
2018-10-03T13:29:03.241Z,1020.83
2018-10-03T13:30:30.654Z,1020.88
2018-10-03T13:31:58.101Z,1020.88
2018-10-03T13:33:25.581Z,1020.84
2018-10-03T13:34:52.894Z,1020.86
2018-10-03T13:36:20.433Z,1020.91
2018-10-03T13:37:47.769Z,1020.95
2018-10-03T13:39:15.210Z,1020.96
2018-10-03T13:40:42.530Z,1020.89
2018-10-03T13:42:09.665Z,1020.88
2018-10-03T13:43:37.113Z,1020.88
2018-10-03T13:45:04.203Z,1020.95
2018-10-03T13:46:31.701Z,1020.91
2018-10-03T13:47:59.163Z,1020.92
2018-10-03T13:49:26.596Z,1020.99
2018-10-03T13:50:54.149Z,1021.00
2018-10-03T13:52:21.433Z,1020.95
2018-10-03T13:53:48.804Z,1021.02
2018-10-03T13:55:16.513Z,1020.98
2018-10-03T13:56:43.738Z,1021.05
2018-10-03T13:58:10.959Z,1021.04
2018-10-03T13:59:38.456Z,1021.06
2018-10-03T14:01:05.708Z,1021.06
2018-10-03T14:02:33.002Z,1021.00
2018-10-03T14:04:00.580Z,1021.06
2018-10-03T14:05:27.865Z,1021.05
2018-10-03T14:06:55.371Z,1021.08
2018-10-03T14:08:22.585Z,1021.05
2018-10-03T14:09:49.919Z,1021.05
2018-10-03T14:11:17.201Z,1021.08
2018-10-03T14:12:44.619Z,1021.10
2018-10-03T14:14:11.960Z,1021.11
2018-10-03T14:15:39.349Z,1021.15
2018-10-03T14:17:06.888Z,1021.15
2018-10-03T14:18:34.106Z,1021.21
2018-10-03T14:20:01.319Z,1021.25
2018-10-03T14:21:28.758Z,1021.31
2018-10-03T14:22:56.283Z,1021.31
2018-10-03T14:24:23.697Z,1021.38
2018-10-03T14:25:51.049Z,1021.42
2018-10-03T14:27:18.209Z,1021.38
2018-10-03T14:28:45.508Z,1021.43
2018-10-03T14:30:12.944Z,1021.49
2018-10-03T14:31:40.433Z,1021.45
2018-10-03T14:33:07.903Z,1021.47
2018-10-03T14:34:35.301Z,1021.51
2018-10-03T14:36:02.510Z,1021.47
2018-10-03T14:37:29.851Z,1021.48
2018-10-03T14:38:57.164Z,1021.46
2018-10-03T14:40:24.446Z,1021.53
2018-10-03T14:41:51.938Z,1021.58
2018-10-03T14:43:19.246Z,1021.64
2018-10-03T14:44:46.659Z,1021.65
2018-10-03T14:46:14.073Z,1021.62
2018-10-03T14:47:41.333Z,1021.60
2018-10-03T14:49:08.773Z,1021.56
2018-10-03T14:50:36.003Z,1021.60
2018-10-03T14:52:03.429Z,1021.64
2018-10-03T14:53:30.796Z,1021.63
2018-10-03T14:54:58.207Z,1021.65
2018-10-03T14:56:25.332Z,1021.66
2018-10-03T14:57:52.780Z,1021.69
2018-10-03T14:59:19.896Z,1021.66
2018-10-03T15:00:46.793Z,1021.67
2018-10-03T15:02:14.260Z,1021.65
2018-10-03T15:03:41.496Z,1021.66
2018-10-03T15:05:09.008Z,1021.61
2018-10-03T15:06:36.365Z,1021.59
2018-10-03T15:08:03.840Z,1021.54
2018-10-03T15:09:30.830Z,1021.53
2018-10-03T15:10:58.126Z,1021.53
2018-10-03T15:12:25.551Z,1021.59
2018-10-03T15:13:53.023Z,1021.54
2018-10-03T15:15:20.354Z,1021.56
2018-10-03T15:16:47.647Z,1021.54
2018-10-03T15:18:15.148Z,1021.55
2018-10-03T15:19:42.602Z,1021.56
2018-10-03T15:21:09.820Z,1021.58
2018-10-03T15:22:37.143Z,1021.63
2018-10-03T15:24:04.487Z,1021.68
2018-10-03T15:25:32.080Z,1021.70
2018-10-03T15:26:59.027Z,1021.71
2018-10-03T15:28:26.324Z,1021.69
2018-10-03T15:29:53.778Z,1021.71
2018-10-03T15:31:21.188Z,1021.70
2018-10-03T15:32:48.594Z,1021.75
2018-10-03T15:34:16.077Z,1021.79
2018-10-03T15:35:43.325Z,1021.80
2018-10-03T15:37:10.547Z,1021.79
2018-10-03T15:38:37.980Z,1021.85
2018-10-03T15:40:05.507Z,1021.89
2018-10-03T15:41:33.079Z,1021.93
2018-10-03T15:42:59.942Z,1021.89
2018-10-03T15:44:27.323Z,1021.87
2018-10-03T15:45:54.475Z,1021.93
2018-10-03T15:47:21.950Z,1021.96
2018-10-03T15:48:49.518Z,1021.96
2018-10-03T15:50:16.879Z,1022.00
2018-10-03T15:51:44.337Z,1022.00
2018-10-03T15:53:11.573Z,1022.04
2018-10-03T15:54:38.947Z,1022.10
2018-10-03T15:56:06.261Z,1022.06
2018-10-03T15:57:33.686Z,1022.08
2018-10-03T15:59:00.961Z,1022.14
2018-10-03T16:00:28.388Z,1022.19
2018-10-03T16:01:55.238Z,1022.22
2018-10-03T16:03:22.597Z,1022.21
2018-10-03T16:04:49.643Z,1022.27
2018-10-03T16:06:16.655Z,1022.32
2018-10-03T16:07:44.035Z,1022.35
2018-10-03T16:09:11.289Z,1022.38
2018-10-03T16:10:38.566Z,1022.36
2018-10-03T16:12:05.836Z,1022.35
2018-10-03T16:13:33.128Z,1022.38
2018-10-03T16:15:00.323Z,1022.42
2018-10-03T16:16:27.658Z,1022.40
2018-10-03T16:17:55.076Z,1022.45
2018-10-03T16:19:22.105Z,1022.47
2018-10-03T16:20:49.437Z,1022.43
2018-10-03T16:22:16.827Z,1022.45
2018-10-03T16:23:44.267Z,1022.46
2018-10-03T16:25:11.252Z,1022.45
2018-10-03T16:26:38.658Z,1022.49
2018-10-03T16:28:06.112Z,1022.48
2018-10-03T16:29:33.419Z,1022.53
2018-10-03T16:31:00.863Z,1022.58
2018-10-03T16:32:28.384Z,1022.56
2018-10-03T16:33:55.934Z,1022.57
2018-10-03T16:35:22.716Z,1022.59
2018-10-03T16:36:49.787Z,1022.61
2018-10-03T16:38:17.091Z,1022.56
2018-10-03T16:39:44.401Z,1022.52
2018-10-03T16:41:11.891Z,1022.54
2018-10-03T16:42:39.350Z,1022.55
2018-10-03T16:44:06.187Z,1022.57
2018-10-03T16:45:33.220Z,1022.60
2018-10-03T16:47:00.667Z,1022.65
2018-10-03T16:48:27.977Z,1022.67
2018-10-03T16:49:55.288Z,1022.71
2018-10-03T16:51:22.299Z,1022.71
2018-10-03T16:52:49.463Z,1022.68
2018-10-03T16:54:16.868Z,1022.71
2018-10-03T16:55:44.002Z,1022.74
2018-10-03T16:57:11.197Z,1022.76
2018-10-03T16:58:38.531Z,1022.79
2018-10-03T17:00:05.901Z,1022.81
2018-10-03T17:01:33.353Z,1022.81
2018-10-03T17:03:00.364Z,1022.85
2018-10-03T17:04:27.704Z,1022.86
2018-10-03T17:05:54.999Z,1022.87
2018-10-03T17:07:22.249Z,1022.90
2018-10-03T17:08:49.384Z,1022.88
2018-10-03T17:10:16.736Z,1022.92
2018-10-03T17:11:43.926Z,1022.96
2018-10-03T17:13:11.294Z,1023.00
2018-10-03T17:14:38.695Z,1023.02
2018-10-03T17:16:05.863Z,1023.06
2018-10-03T17:17:32.856Z,1023.09
2018-10-03T17:19:00.242Z,1023.14
2018-10-03T17:20:27.236Z,1023.18
2018-10-03T17:21:54.247Z,1023.19
2018-10-03T17:23:21.565Z,1023.25
2018-10-03T17:24:48.655Z,1023.22
2018-10-03T17:26:15.935Z,1023.25
2018-10-03T17:27:43.326Z,1023.25
2018-10-03T17:29:10.556Z,1023.26
2018-10-03T17:30:37.455Z,1023.24
2018-10-03T17:32:04.667Z,1023.29
2018-10-03T17:33:32.058Z,1023.31
2018-10-03T17:34:59.301Z,1023.31
2018-10-03T17:36:26.684Z,1023.33
2018-10-03T17:37:53.974Z,1023.34
2018-10-03T17:39:21.432Z,1023.39
2018-10-03T17:40:48.621Z,1023.44
2018-10-03T17:42:15.928Z,1023.49
2018-10-03T17:43:43.246Z,1023.48
2018-10-03T17:45:10.548Z,1023.50
2018-10-03T17:46:37.702Z,1023.52
2018-10-03T17:48:04.831Z,1023.51
2018-10-03T17:49:32.131Z,1023.58
2018-10-03T17:50:59.539Z,1023.64
2018-10-03T17:52:26.795Z,1023.63
2018-10-03T17:53:54.197Z,1023.63
2018-10-03T17:55:21.607Z,1023.65
2018-10-03T17:56:49.072Z,1023.66
2018-10-03T17:58:16.510Z,1023.68
2018-10-03T17:59:43.832Z,1023.70
2018-10-03T18:01:11.000Z,1023.73
2018-10-03T18:02:38.309Z,1023.71
2018-10-03T18:04:05.379Z,1023.71
2018-10-03T18:05:32.896Z,1023.73
2018-10-03T18:07:00.137Z,1023.73
2018-10-03T18:08:27.494Z,1023.75
2018-10-03T18:09:54.799Z,1023.74
2018-10-03T18:11:22.020Z,1023.74
2018-10-03T18:12:49.222Z,1023.76
2018-10-03T18:14:16.503Z,1023.77
2018-10-03T18:15:43.777Z,1023.83
2018-10-03T18:17:11.032Z,1023.84
2018-10-03T18:18:38.064Z,1023.85
2018-10-03T18:20:05.271Z,1023.85
2018-10-03T18:21:32.239Z,1023.84
2018-10-03T18:22:59.091Z,1023.84
2018-10-03T18:24:26.153Z,1023.85
2018-10-03T18:25:53.510Z,1023.83
2018-10-03T18:27:20.850Z,1023.84
2018-10-03T18:28:47.764Z,1023.85
2018-10-03T18:30:14.980Z,1023.83
2018-10-03T18:31:42.244Z,1023.86
2018-10-03T18:33:09.450Z,1023.87
2018-10-03T18:34:36.643Z,1023.89
2018-10-03T18:36:03.583Z,1023.91
2018-10-03T18:37:30.813Z,1023.92
2018-10-03T18:38:58.361Z,1024.00
2018-10-03T18:40:25.658Z,1024.04
2018-10-03T18:41:52.949Z,1024.08
2018-10-03T18:43:20.365Z,1024.07
2018-10-03T18:44:47.387Z,1024.08
2018-10-03T18:46:14.333Z,1024.09
2018-10-03T18:47:41.307Z,1024.12
2018-10-03T18:49:08.557Z,1024.15
2018-10-03T18:50:35.744Z,1024.16
2018-10-03T18:52:03.216Z,1024.16
2018-10-03T18:53:30.502Z,1024.15
2018-10-03T18:54:57.871Z,1024.16
2018-10-03T18:56:25.460Z,1024.20
2018-10-03T18:57:52.729Z,1024.22
2018-10-03T18:59:20.087Z,1024.23
2018-10-03T19:00:47.073Z,1024.23
2018-10-03T19:02:13.858Z,1024.25
2018-10-03T19:03:40.877Z,1024.30
2018-10-03T19:05:08.095Z,1024.29
2018-10-03T19:06:35.469Z,1024.32
2018-10-03T19:08:02.606Z,1024.33
2018-10-03T19:09:30.145Z,1024.31
2018-10-03T19:10:57.494Z,1024.33
2018-10-03T19:12:25.028Z,1024.33
2018-10-03T19:13:52.052Z,1024.34
2018-10-03T19:15:19.415Z,1024.37
2018-10-03T19:16:46.829Z,1024.39
2018-10-03T19:18:14.141Z,1024.43
2018-10-03T19:19:41.350Z,1024.44
2018-10-03T19:21:08.662Z,1024.44
2018-10-03T19:22:35.977Z,1024.45
2018-10-03T19:24:03.393Z,1024.47
2018-10-03T19:25:30.740Z,1024.49
2018-10-03T19:26:57.708Z,1024.48
2018-10-03T19:28:24.986Z,1024.53
2018-10-03T19:29:52.303Z,1024.54
2018-10-03T19:31:19.569Z,1024.55
2018-10-03T19:32:46.791Z,1024.55
2018-10-03T19:34:13.904Z,1024.57
2018-10-03T19:35:40.817Z,1024.58
2018-10-03T19:37:07.959Z,1024.57
2018-10-03T19:38:34.989Z,1024.59
2018-10-03T19:40:02.183Z,1024.61
2018-10-03T19:41:29.577Z,1024.60
2018-10-03T19:42:56.763Z,1024.59
2018-10-03T19:44:24.100Z,1024.63
2018-10-03T19:45:51.511Z,1024.65
2018-10-03T19:47:18.735Z,1024.69
2018-10-03T19:48:45.926Z,1024.70
2018-10-03T19:50:13.264Z,1024.71
2018-10-03T19:51:40.366Z,1024.74
2018-10-03T19:53:07.587Z,1024.77
2018-10-03T19:54:35.017Z,1024.80
2018-10-03T19:56:02.197Z,1024.79
2018-10-03T19:57:29.098Z,1024.81
2018-10-03T19:58:56.563Z,1024.81
2018-10-03T20:00:23.834Z,1024.83
2018-10-03T20:01:51.081Z,1024.81
2018-10-03T20:03:18.525Z,1024.83
2018-10-03T20:04:45.699Z,1024.82
2018-10-03T20:06:12.753Z,1024.83
2018-10-03T20:07:39.994Z,1024.80
2018-10-03T20:09:07.363Z,1024.82
2018-10-03T20:10:34.510Z,1024.85
2018-10-03T20:12:01.965Z,1024.87
2018-10-03T20:13:28.782Z,1024.86
2018-10-03T20:14:56.133Z,1024.85
2018-10-03T20:16:23.142Z,1024.86
2018-10-03T20:17:50.446Z,1024.89
2018-10-03T20:19:17.730Z,1024.92
2018-10-03T20:20:44.947Z,1024.92
2018-10-03T20:22:12.155Z,1024.96
2018-10-03T20:23:39.367Z,1024.90
2018-10-03T20:25:06.739Z,1024.93
2018-10-03T20:26:34.092Z,1024.94
2018-10-03T20:28:01.448Z,1024.94
2018-10-03T20:29:28.856Z,1024.92
2018-10-03T20:30:56.078Z,1024.97
2018-10-03T20:32:22.857Z,1024.99
2018-10-03T20:33:50.025Z,1025.00
2018-10-03T20:35:17.132Z,1025.02
2018-10-03T20:36:44.223Z,1025.03
2018-10-03T20:38:11.467Z,1025.03
2018-10-03T20:39:38.562Z,1025.03
2018-10-03T20:41:05.484Z,1025.05
2018-10-03T20:42:32.410Z,1025.05
2018-10-03T20:43:59.788Z,1025.08
2018-10-03T20:45:26.611Z,1025.09
2018-10-03T20:46:53.641Z,1025.10
2018-10-03T20:48:21.098Z,1025.10
2018-10-03T20:49:48.257Z,1025.09
2018-10-03T20:51:15.484Z,1025.09
2018-10-03T20:52:42.848Z,1025.07
2018-10-03T20:54:09.957Z,1025.08
2018-10-03T20:55:37.255Z,1025.10
2018-10-03T20:57:04.051Z,1025.15
2018-10-03T20:58:31.486Z,1025.15
2018-10-03T20:59:58.830Z,1025.16
2018-10-03T21:01:26.051Z,1025.18
2018-10-03T21:02:53.377Z,1025.16
2018-10-03T21:04:20.783Z,1025.14
2018-10-03T21:05:48.062Z,1025.13
2018-10-03T21:07:15.275Z,1025.16
2018-10-03T21:08:42.075Z,1025.15
2018-10-03T21:10:09.016Z,1025.15
2018-10-03T21:11:36.232Z,1025.16
2018-10-03T21:13:03.606Z,1025.18
2018-10-03T21:14:30.844Z,1025.16
2018-10-03T21:15:57.688Z,1025.16
2018-10-03T21:17:25.860Z,1025.15
2018-10-03T21:18:52.221Z,1025.18
2018-10-03T21:20:19.231Z,1025.15
2018-10-03T21:21:46.413Z,1025.16
2018-10-03T21:23:13.800Z,1025.21
2018-10-03T21:24:40.889Z,1025.21
2018-10-03T21:26:08.285Z,1025.22
2018-10-03T21:27:35.480Z,1025.22
2018-10-03T21:29:02.839Z,1025.23
2018-10-03T21:30:30.106Z,1025.27
2018-10-03T21:31:57.471Z,1025.28
2018-10-03T21:33:24.567Z,1025.30
2018-10-03T21:34:51.750Z,1025.34
2018-10-03T21:36:18.648Z,1025.35
2018-10-03T21:37:46.053Z,1025.38
2018-10-03T21:39:13.274Z,1025.39
2018-10-03T21:40:40.405Z,1025.40
2018-10-03T21:42:07.119Z,1025.38
2018-10-03T21:43:34.525Z,1025.41
2018-10-03T21:45:01.898Z,1025.45
2018-10-03T21:46:29.320Z,1025.44
2018-10-03T21:47:56.381Z,1025.42
2018-10-03T21:49:23.562Z,1025.43
2018-10-03T21:50:50.775Z,1025.42
2018-10-03T21:52:17.745Z,1025.40
2018-10-03T21:53:44.684Z,1025.40
2018-10-03T21:55:11.778Z,1025.39
2018-10-03T21:56:38.689Z,1025.38
2018-10-03T21:58:06.019Z,1025.35
2018-10-03T21:59:33.426Z,1025.33
2018-10-03T22:01:00.508Z,1025.31
2018-10-03T22:02:27.291Z,1025.27
2018-10-03T22:03:54.591Z,1025.26
2018-10-03T22:05:21.846Z,1025.23
2018-10-03T22:06:49.168Z,1025.25
2018-10-03T22:08:16.140Z,1025.26
2018-10-03T22:09:43.480Z,1025.28
2018-10-03T22:11:10.803Z,1025.28
2018-10-03T22:12:38.194Z,1025.29
2018-10-03T22:14:05.494Z,1025.29
2018-10-03T22:15:32.780Z,1025.32
2018-10-03T22:17:00.759Z,1025.33
2018-10-03T22:18:27.245Z,1025.35
2018-10-03T22:19:54.406Z,1025.34
2018-10-03T22:21:21.739Z,1025.34
2018-10-03T22:22:49.096Z,1025.34
2018-10-03T22:24:16.466Z,1025.35
2018-10-03T22:25:43.723Z,1025.37
2018-10-03T22:27:10.883Z,1025.39
2018-10-03T22:28:38.148Z,1025.42
2018-10-03T22:30:05.107Z,1025.44
2018-10-03T22:31:31.984Z,1025.44
2018-10-03T22:32:58.800Z,1025.46
2018-10-03T22:34:26.088Z,1025.45
2018-10-03T22:35:53.520Z,1025.47
2018-10-03T22:37:20.895Z,1025.47
2018-10-03T22:38:48.182Z,1025.51
2018-10-03T22:40:15.448Z,1025.51
2018-10-03T22:41:42.616Z,1025.55
2018-10-03T22:43:09.513Z,1025.56
2018-10-03T22:44:36.855Z,1025.57
2018-10-03T22:46:04.076Z,1025.57
2018-10-03T22:47:30.936Z,1025.55
2018-10-03T22:48:58.261Z,1025.55
2018-10-03T22:50:25.625Z,1025.58
2018-10-03T22:51:52.888Z,1025.58
2018-10-03T22:53:20.292Z,1025.59
2018-10-03T22:54:47.463Z,1025.61
2018-10-03T22:56:14.628Z,1025.59
2018-10-03T22:57:41.936Z,1025.60
2018-10-03T22:59:09.298Z,1025.60
2018-10-03T23:00:36.189Z,1025.62
2018-10-03T23:02:03.721Z,1025.65
2018-10-03T23:03:30.986Z,1025.65
2018-10-03T23:04:58.331Z,1025.67
2018-10-03T23:06:25.665Z,1025.64
2018-10-03T23:07:52.732Z,1025.62
2018-10-03T23:09:19.869Z,1025.62
2018-10-03T23:10:47.164Z,1025.62
2018-10-03T23:12:14.272Z,1025.60
2018-10-03T23:13:41.397Z,1025.65
2018-10-03T23:15:08.757Z,1025.63
2018-10-03T23:16:36.081Z,1025.66
2018-10-03T23:18:03.282Z,1025.68
2018-10-03T23:19:30.558Z,1025.67
2018-10-03T23:20:57.920Z,1025.68
2018-10-03T23:22:25.221Z,1025.69
2018-10-03T23:23:52.481Z,1025.71
2018-10-03T23:25:19.856Z,1025.73
2018-10-03T23:26:47.207Z,1025.72
2018-10-03T23:28:14.556Z,1025.77
2018-10-03T23:29:41.539Z,1025.77
2018-10-03T23:31:08.273Z,1025.79
2018-10-03T23:32:35.476Z,1025.80
2018-10-03T23:34:02.828Z,1025.80
2018-10-03T23:35:30.095Z,1025.80
2018-10-03T23:36:57.180Z,1025.81
2018-10-03T23:38:24.695Z,1025.81
2018-10-03T23:39:51.415Z,1025.84
2018-10-03T23:41:18.560Z,1025.88
2018-10-03T23:42:45.784Z,1025.88
2018-10-03T23:44:13.134Z,1025.86
